createdAt,value
2018-01-13T00:01:40.143Z,24.67
2018-01-13T00:04:08.511Z,21.37
2018-01-13T00:06:36.926Z,24.07
2018-01-13T00:09:04.629Z,23.27
2018-01-13T00:11:33.019Z,22.00
2018-01-13T00:14:01.407Z,22.77
2018-01-13T00:16:29.779Z,21.23
2018-01-13T00:18:58.147Z,21.40
2018-01-13T00:21:26.551Z,20.63
2018-01-13T00:23:54.928Z,20.00
2018-01-13T00:26:23.304Z,20.40
2018-01-13T00:28:51.694Z,22.53
2018-01-13T00:31:20.063Z,20.60
2018-01-13T00:33:48.436Z,20.77
2018-01-13T00:36:16.847Z,18.57
2018-01-13T00:38:45.216Z,19.60
2018-01-13T00:41:13.582Z,19.23
2018-01-13T00:43:42.012Z,18.10
2018-01-13T00:46:11.152Z,20.27
2018-01-13T00:48:39.526Z,18.30
2018-01-13T00:51:07.928Z,19.43
2018-01-13T00:53:36.309Z,19.10
2018-01-13T00:56:04.682Z,18.93
2018-01-13T00:58:33.079Z,18.27
2018-01-13T01:01:01.455Z,17.30
2018-01-13T01:03:29.822Z,20.13
2018-01-13T01:05:58.212Z,20.37
2018-01-13T01:08:26.582Z,19.53
2018-01-13T01:10:54.963Z,20.03
2018-01-13T01:13:23.363Z,20.10
2018-01-13T01:15:52.505Z,18.83
2018-01-13T01:18:20.880Z,18.27
2018-01-13T01:20:49.266Z,19.03
2018-01-13T01:23:17.635Z,18.10
2018-01-13T01:25:46.015Z,16.03
2018-01-13T01:28:14.399Z,17.63
2018-01-13T01:30:42.773Z,19.47
2018-01-13T01:33:11.140Z,17.83
2018-01-13T01:35:39.536Z,16.10
2018-01-13T01:38:07.925Z,18.70
2018-01-13T01:40:36.288Z,16.17
2018-01-13T01:43:04.676Z,16.00
2018-01-13T01:45:33.051Z,18.07
2018-01-13T01:48:01.416Z,15.93
2018-01-13T01:50:30.010Z,14.67
2018-01-13T01:52:58.384Z,14.20
2018-01-13T01:55:26.777Z,15.00
2018-01-13T01:57:55.168Z,15.93
2018-01-13T02:00:23.536Z,15.77
2018-01-13T02:02:51.895Z,13.07
2018-01-13T02:05:20.274Z,16.23
2018-01-13T02:07:48.634Z,16.00
2018-01-13T02:10:17.008Z,14.97
2018-01-13T02:12:45.396Z,13.43
2018-01-13T02:15:13.764Z,15.13
2018-01-13T02:17:42.128Z,12.27
2018-01-13T02:20:09.896Z,13.67
2018-01-13T02:22:38.275Z,11.17
2018-01-13T02:25:06.685Z,12.10
2018-01-13T02:27:35.080Z,13.17
2018-01-13T02:30:03.119Z,13.90
2018-01-13T02:32:31.523Z,14.70
2018-01-13T02:34:59.911Z,15.33
2018-01-13T02:37:28.292Z,14.33
2018-01-13T02:39:56.696Z,14.90
2018-01-13T02:42:25.864Z,13.70
2018-01-13T02:44:54.229Z,12.03
2018-01-13T02:47:22.602Z,11.83
2018-01-13T02:49:50.987Z,12.00
2018-01-13T02:52:19.359Z,12.47
2018-01-13T02:54:47.757Z,14.27
2018-01-13T02:57:16.142Z,14.57
2018-01-13T02:59:44.520Z,11.70
2018-01-13T03:02:12.910Z,12.33
2018-01-13T03:04:42.076Z,11.63
2018-01-13T03:07:10.447Z,13.50
2018-01-13T03:09:38.820Z,14.03
2018-01-13T03:12:07.217Z,12.47
2018-01-13T03:14:35.577Z,12.47
2018-01-13T03:17:03.633Z,13.40
2018-01-13T03:19:32.019Z,13.17
2018-01-13T03:22:00.389Z,14.13
2018-01-13T03:24:28.753Z,12.33
2018-01-13T03:26:57.146Z,11.23
2018-01-13T03:29:25.517Z,9.67
2018-01-13T03:31:53.896Z,10.73
2018-01-13T03:34:22.283Z,12.00
2018-01-13T03:36:50.652Z,11.87
2018-01-13T03:39:19.032Z,12.30
2018-01-13T03:41:47.421Z,12.33
2018-01-13T03:44:15.799Z,13.43
2018-01-13T03:46:44.180Z,12.30
2018-01-13T03:49:13.592Z,11.87
2018-01-13T03:51:41.969Z,12.87
2018-01-13T03:54:10.351Z,10.73
2018-01-13T03:56:39.521Z,12.40
2018-01-13T03:59:07.891Z,10.37
2018-01-13T04:01:36.255Z,11.07
2018-01-13T04:04:05.415Z,12.23
2018-01-13T04:06:33.788Z,10.97
2018-01-13T04:09:02.156Z,11.23
2018-01-13T04:11:30.551Z,10.60
2018-01-13T04:13:58.993Z,11.53
2018-01-13T04:16:27.364Z,12.70
2018-01-13T04:18:55.759Z,10.17
2018-01-13T04:21:24.149Z,10.73
2018-01-13T04:23:52.529Z,10.40
2018-01-13T04:26:20.915Z,9.60
2018-01-13T04:28:49.328Z,10.40
2018-01-13T04:31:18.471Z,12.23
2018-01-13T04:33:46.864Z,10.27
2018-01-13T04:36:15.258Z,11.63
2018-01-13T04:38:43.622Z,12.87
2018-01-13T04:41:12.058Z,11.07
2018-01-13T04:43:41.031Z,10.27
2018-01-13T04:46:10.160Z,10.07
2018-01-13T04:48:38.568Z,10.70
2018-01-13T04:51:08.536Z,10.03
2018-01-13T04:53:36.960Z,9.70
2018-01-13T04:56:06.232Z,11.00
2018-01-13T04:58:34.605Z,11.30
2018-01-13T05:01:02.967Z,9.47
2018-01-13T05:03:32.129Z,12.53
2018-01-13T05:06:00.509Z,9.43
2018-01-13T05:08:28.912Z,10.17
2018-01-13T05:10:58.071Z,10.03
2018-01-13T05:13:26.448Z,9.40
2018-01-13T05:15:54.840Z,10.77
2018-01-13T05:18:23.241Z,10.63
2018-01-13T05:20:52.381Z,10.77
2018-01-13T05:23:20.745Z,8.67
2018-01-13T05:25:49.124Z,13.07
2018-01-13T05:28:17.504Z,11.20
2018-01-13T05:30:45.871Z,10.33
2018-01-13T05:33:14.258Z,11.07
2018-01-13T05:35:42.633Z,9.70
2018-01-13T05:38:10.988Z,12.50
2018-01-13T05:40:40.141Z,9.90
2018-01-13T05:43:08.524Z,11.63
2018-01-13T05:45:36.904Z,10.23
2018-01-13T05:48:05.295Z,10.00
2018-01-13T05:50:33.680Z,9.27
2018-01-13T05:53:02.042Z,8.40
2018-01-13T05:55:30.443Z,8.90
2018-01-13T05:58:00.163Z,10.30
2018-01-13T06:00:29.135Z,8.00
2018-01-13T06:02:57.539Z,10.27
2018-01-13T06:05:26.699Z,9.00
2018-01-13T06:07:55.071Z,10.43
2018-01-13T06:10:23.476Z,12.67
2018-01-13T06:12:52.609Z,9.37
2018-01-13T06:15:20.997Z,12.57
2018-01-13T06:17:49.409Z,9.73
2018-01-13T06:20:17.788Z,10.53
2018-01-13T06:22:46.168Z,10.07
2018-01-13T06:25:14.566Z,11.83
2018-01-13T06:27:43.707Z,12.67
2018-01-13T06:30:12.080Z,11.10
2018-01-13T06:32:40.468Z,11.93
2018-01-13T06:35:08.844Z,11.60
2018-01-13T06:37:37.253Z,11.33
2018-01-13T06:40:05.648Z,11.77
2018-01-13T06:42:34.028Z,12.97
2018-01-13T06:45:03.178Z,11.77
2018-01-13T06:47:31.579Z,12.30
2018-01-13T06:49:59.957Z,12.40
2018-01-13T06:52:28.337Z,11.77
2018-01-13T06:54:56.747Z,12.63
2018-01-13T06:57:25.896Z,13.50
2018-01-13T06:59:54.452Z,13.70
2018-01-13T07:02:23.610Z,12.50
2018-01-13T07:04:51.996Z,13.27
2018-01-13T07:07:25.507Z,13.97
2018-01-13T07:09:53.890Z,15.70
2018-01-13T07:12:23.101Z,14.37
2018-01-13T07:14:51.469Z,12.97
2018-01-13T07:17:20.614Z,13.80
2018-01-13T07:19:49.024Z,13.80
2018-01-13T07:22:17.458Z,14.20
2018-01-13T07:24:45.828Z,16.27
2018-01-13T07:27:14.225Z,15.40
2018-01-13T07:29:42.600Z,15.27
2018-01-13T07:32:10.990Z,15.13
2018-01-13T07:34:39.400Z,14.60
2018-01-13T07:37:08.572Z,14.40
2018-01-13T07:39:36.967Z,17.00
2018-01-13T07:42:06.733Z,15.90
2018-01-13T07:44:35.152Z,16.83
2018-01-13T07:47:03.541Z,14.70
2018-01-13T07:49:31.934Z,13.20
2018-01-13T07:52:01.072Z,14.37
2018-01-13T07:54:29.448Z,14.37
2018-01-13T07:56:57.827Z,14.70
2018-01-13T07:59:26.215Z,16.43
2018-01-13T08:01:54.626Z,14.70
2018-01-13T08:04:23.795Z,18.20
2018-01-13T08:06:51.975Z,15.80
2018-01-13T08:09:20.161Z,13.10
2018-01-13T08:11:48.569Z,14.87
2018-01-13T08:14:17.716Z,15.27
2018-01-13T08:16:46.081Z,13.60
2018-01-13T08:19:14.483Z,13.53
2018-01-13T08:21:42.863Z,12.90
2018-01-13T08:24:11.236Z,14.00
2018-01-13T08:26:40.391Z,14.03
2018-01-13T08:29:08.786Z,11.70
2018-01-13T08:31:37.260Z,11.23
2018-01-13T08:34:05.651Z,10.23
2018-01-13T08:36:34.834Z,11.83
2018-01-13T08:39:03.197Z,9.40
2018-01-13T08:41:31.591Z,10.50
2018-01-13T08:43:59.964Z,12.37
2018-01-13T08:46:28.320Z,13.40
2018-01-13T08:48:57.477Z,12.03
2018-01-13T08:51:25.851Z,9.03
2018-01-13T08:53:54.346Z,11.80
2018-01-13T08:56:22.752Z,12.83
2018-01-13T08:58:51.704Z,12.33
2018-01-13T11:45:09.531Z,9.80
2018-01-13T11:47:38.743Z,7.10
2018-01-13T11:50:07.146Z,4.80
2018-01-13T11:52:35.536Z,10.40
2018-01-13T11:55:03.896Z,6.80
2018-01-13T11:57:32.277Z,9.17
2018-01-13T12:00:00.660Z,8.50
2018-01-13T12:02:29.141Z,9.83
2018-01-13T12:04:57.498Z,9.07
2018-01-13T12:07:25.971Z,10.03
2018-01-13T12:09:54.354Z,10.53
2018-01-13T12:12:22.763Z,7.53
2018-01-13T12:14:51.176Z,4.17
2018-01-13T12:17:19.619Z,8.47
2018-01-13T12:19:48.069Z,9.53
2018-01-13T12:22:16.469Z,7.20
2018-01-13T12:24:44.841Z,10.73
2018-01-13T12:27:13.256Z,8.60
2018-01-13T12:29:41.649Z,5.80
2018-01-13T12:32:10.089Z,9.87
2018-01-13T12:34:38.456Z,7.63
2018-01-13T12:37:07.143Z,9.50
2018-01-13T12:39:35.509Z,7.77
2018-01-13T12:42:04.129Z,4.67
2018-01-13T12:44:32.530Z,4.37
2018-01-13T12:47:00.908Z,8.10
2018-01-13T12:49:29.992Z,10.00
2018-01-13T12:51:58.597Z,8.37
2018-01-13T12:54:27.736Z,5.67
2018-01-13T12:56:56.099Z,5.90
2018-01-13T12:59:24.531Z,7.97
2018-01-13T13:01:52.561Z,8.50
2018-01-13T13:04:20.934Z,7.00
2018-01-13T13:06:49.320Z,8.17
2018-01-13T13:09:17.683Z,7.47
2018-01-13T13:11:46.071Z,9.57
2018-01-13T13:14:14.459Z,9.47
2018-01-13T13:16:42.818Z,6.10
2018-01-13T13:19:11.325Z,9.70
2018-01-13T13:21:40.658Z,9.03
2018-01-13T13:24:09.050Z,7.90
2018-01-13T13:26:38.194Z,10.90
2018-01-13T13:29:06.571Z,9.17
2018-01-13T13:31:34.945Z,9.77
2018-01-13T13:34:03.314Z,9.90
2018-01-13T13:36:31.801Z,7.97
2018-01-13T13:39:00.184Z,8.70
2018-01-13T13:41:28.555Z,10.23
2018-01-13T13:43:56.947Z,11.10
2018-01-13T13:46:25.318Z,11.50
2018-01-13T13:48:53.683Z,12.17
2018-01-13T13:51:21.770Z,13.07
2018-01-13T13:53:50.181Z,5.33
2018-01-13T13:56:18.553Z,9.10
2018-01-13T13:58:46.955Z,9.50
2018-01-13T14:01:28.507Z,5.97
2018-01-13T14:03:43.910Z,8.63
2018-01-13T14:06:12.358Z,10.13
2018-01-13T14:08:40.764Z,7.80
2018-01-13T14:11:09.132Z,6.20
2018-01-13T14:13:37.576Z,7.63
2018-01-13T14:16:05.963Z,6.97
2018-01-13T14:18:34.364Z,10.47
2018-01-13T14:21:02.776Z,2.50
2018-01-13T14:23:31.920Z,12.80
2018-01-13T14:26:00.376Z,6.30
2018-01-13T14:28:28.812Z,6.00
2018-01-13T14:30:57.499Z,10.37
2018-01-13T14:33:26.047Z,7.70
2018-01-13T14:35:54.494Z,9.63
2018-01-13T14:38:22.892Z,8.17
2018-01-13T14:40:51.261Z,7.03
2018-01-13T14:43:20.687Z,3.17
2018-01-13T14:45:49.247Z,7.47
2018-01-13T14:48:17.746Z,8.90
2018-01-13T14:50:46.171Z,5.00
2018-01-13T14:53:14.567Z,7.97
2018-01-13T14:55:44.525Z,7.73
2018-01-13T14:58:12.936Z,5.90
2018-01-13T15:00:41.303Z,8.80
2018-01-13T15:03:09.677Z,5.83
2018-01-13T15:05:38.063Z,9.13
2018-01-13T15:08:06.425Z,8.00
2018-01-13T15:10:34.783Z,6.90
2018-01-13T15:13:03.180Z,7.50
2018-01-13T15:15:31.554Z,5.17
2018-01-13T15:17:59.964Z,7.30
2018-01-13T15:20:28.386Z,9.20
2018-01-13T15:22:56.752Z,8.70
2018-01-13T15:25:25.142Z,7.50
2018-01-13T15:27:53.542Z,8.13
2018-01-13T15:30:21.950Z,11.50
2018-01-13T15:32:50.380Z,10.27
2018-01-13T15:35:19.955Z,8.87
2018-01-13T15:37:49.091Z,9.70
2018-01-13T15:40:17.449Z,8.97
2018-01-13T15:42:45.843Z,9.83
2018-01-13T15:45:14.221Z,9.80
2018-01-13T15:47:42.612Z,9.37
2018-01-13T15:50:11.019Z,6.97
2018-01-13T15:52:39.399Z,8.20
2018-01-13T15:55:07.771Z,7.53
2018-01-13T15:57:36.187Z,5.73
2018-01-13T16:00:05.343Z,9.63
2018-01-13T16:02:33.707Z,5.70
2018-01-13T16:05:02.163Z,6.50
2018-01-13T16:07:30.786Z,7.07
2018-01-13T16:09:59.160Z,7.77
2018-01-13T16:12:36.956Z,7.27
2018-01-13T16:15:04.993Z,7.10
2018-01-13T16:20:20.577Z,7.83
2018-01-13T16:22:48.963Z,9.33
2018-01-13T16:25:17.323Z,8.90
2018-01-13T16:27:46.497Z,6.80
2018-01-13T16:30:14.901Z,7.93
2018-01-13T16:32:43.285Z,6.50
2018-01-13T16:35:11.667Z,7.13
2018-01-13T16:37:40.061Z,6.83
2018-01-13T16:40:08.419Z,7.83
2018-01-13T16:42:36.824Z,7.70
2018-01-13T16:45:05.221Z,7.60
2018-01-13T16:47:33.673Z,8.17
2018-01-13T16:50:02.069Z,9.23
2018-01-13T16:52:30.589Z,8.60
2018-01-13T16:54:59.119Z,6.50
2018-01-13T16:57:27.535Z,6.80
2018-01-13T16:59:56.716Z,7.60
2018-01-13T17:02:25.125Z,7.63
2018-01-13T17:04:53.544Z,7.70
2018-01-13T17:07:21.912Z,8.00
2018-01-13T17:09:50.323Z,5.57
2018-01-13T17:12:18.801Z,7.60
2018-01-13T17:14:47.218Z,6.97
2018-01-13T17:17:15.612Z,6.83
2018-01-13T17:19:44.859Z,6.40
2018-01-13T17:22:13.431Z,7.60
2018-01-13T17:24:41.913Z,6.30
2018-01-13T17:27:10.558Z,8.47
2018-01-13T17:29:39.807Z,7.43
2018-01-13T17:32:08.184Z,6.80
2018-01-13T17:34:36.589Z,8.60
2018-01-13T17:37:05.013Z,7.63
2018-01-13T17:39:33.405Z,8.77
2018-01-13T17:42:01.808Z,8.53
2018-01-13T17:44:30.191Z,4.57
2018-01-13T17:46:58.680Z,8.70
2018-01-13T17:49:27.066Z,8.50
2018-01-13T17:51:55.444Z,8.57
2018-01-13T17:54:23.811Z,7.97
2018-01-13T17:56:52.212Z,7.30
2018-01-13T17:59:20.603Z,8.10
2018-01-13T18:01:49.751Z,9.33
2018-01-13T18:04:18.154Z,8.30
2018-01-13T18:06:46.531Z,7.63
2018-01-13T18:09:14.932Z,5.90
2018-01-13T18:11:44.100Z,7.83
2018-01-13T18:14:12.467Z,9.60
2018-01-13T18:16:40.832Z,8.40
2018-01-13T18:19:09.259Z,8.43
2018-01-13T18:21:38.395Z,8.70
2018-01-13T18:24:06.764Z,10.40
2018-01-13T18:26:35.155Z,3.07
2018-01-13T18:29:03.517Z,6.93
2018-01-13T18:31:31.875Z,7.77
2018-01-13T18:34:01.031Z,7.47
2018-01-13T18:36:29.401Z,8.80
2018-01-13T18:38:57.768Z,7.53
2018-01-13T18:41:26.158Z,8.17
2018-01-13T18:43:54.604Z,5.77
2018-01-13T18:46:22.972Z,13.40
2018-01-13T18:48:52.118Z,4.07
2018-01-13T18:51:21.249Z,7.50
2018-01-13T18:53:50.380Z,7.07
2018-01-13T18:56:18.787Z,8.50
2018-01-13T18:58:47.184Z,7.77
2018-01-13T19:01:15.592Z,3.77
2018-01-13T19:03:44.788Z,6.70
2018-01-13T19:06:13.923Z,6.57
2018-01-13T19:08:43.111Z,5.37
2018-01-13T19:11:11.496Z,7.57
2018-01-13T19:13:39.866Z,4.53
2018-01-13T19:16:08.284Z,9.90
2018-01-13T19:18:36.695Z,8.17
2018-01-13T19:21:05.828Z,6.10
2018-01-13T19:23:34.192Z,6.53
2018-01-13T19:26:02.608Z,7.13
2018-01-13T19:28:31.943Z,6.40
2018-01-13T19:31:01.071Z,8.37
2018-01-13T19:33:29.531Z,7.20
2018-01-13T19:35:57.900Z,4.03
2018-01-13T19:38:27.036Z,4.37
2018-01-13T19:40:55.526Z,7.53
2018-01-13T19:43:23.892Z,6.87
2018-01-13T19:45:52.283Z,4.73
2018-01-13T19:48:21.807Z,8.73
2018-01-13T19:50:50.220Z,3.57
2018-01-13T19:53:19.356Z,7.33
2018-01-13T19:55:47.755Z,7.10
2018-01-13T19:58:16.135Z,4.70
2018-01-13T20:00:44.507Z,5.10
2018-01-13T20:03:12.997Z,4.27
2018-01-13T20:05:41.383Z,6.70
2018-01-13T20:08:09.766Z,7.57
2018-01-13T20:10:38.207Z,6.30
2018-01-13T20:13:06.565Z,9.27
2018-01-13T20:15:35.008Z,5.13
2018-01-13T20:18:04.272Z,5.83
2018-01-13T20:20:32.674Z,9.50
2018-01-13T20:23:01.850Z,9.40
2018-01-13T20:25:30.261Z,9.80
2018-01-13T20:27:59.524Z,8.03
2018-01-13T20:30:27.887Z,9.33
2018-01-13T20:32:56.315Z,9.00
2018-01-13T20:35:25.473Z,8.90
2018-01-13T20:37:54.617Z,9.20
2018-01-13T20:40:23.435Z,9.97
2018-01-13T20:42:52.033Z,10.77
2018-01-13T20:45:20.500Z,9.03
2018-01-13T20:47:49.279Z,10.40
2018-01-13T20:50:17.632Z,5.33
2018-01-13T20:52:46.868Z,6.20
2018-01-13T20:55:15.284Z,9.53
2018-01-13T20:57:43.661Z,9.20
2018-01-13T21:00:12.028Z,7.97
2018-01-13T21:02:40.532Z,8.13
2018-01-13T21:05:09.692Z,8.90
2018-01-13T21:07:38.162Z,8.17
2018-01-13T21:10:06.561Z,7.70
2018-01-13T21:12:36.060Z,8.03
2018-01-13T21:15:04.168Z,5.90
2018-01-13T21:17:32.886Z,6.70
2018-01-13T21:20:01.392Z,6.47
2018-01-13T21:22:29.796Z,9.20
2018-01-13T21:24:58.867Z,8.80
2018-01-13T21:27:27.421Z,8.30
2018-01-13T21:29:55.843Z,8.67
2018-01-13T21:32:24.230Z,9.03
2018-01-13T21:34:52.591Z,9.67
2018-01-13T21:37:20.964Z,4.40
2018-01-13T21:39:49.335Z,6.57
2018-01-13T21:42:17.711Z,10.40
2018-01-13T21:44:46.083Z,9.50
2018-01-13T21:47:15.066Z,3.87
2018-01-13T21:49:43.427Z,6.30
2018-01-13T21:52:12.572Z,10.73
2018-01-13T21:54:40.986Z,4.83
2018-01-13T21:59:46.185Z,5.87
2018-01-13T22:02:14.571Z,5.17
2018-01-13T22:04:42.959Z,7.93
2018-01-13T22:07:11.427Z,7.23
2018-01-13T22:09:39.802Z,10.20
2018-01-13T22:12:08.192Z,7.00
2018-01-13T22:14:36.576Z,9.60
2018-01-13T22:17:04.755Z,7.10
2018-01-13T22:19:33.123Z,10.17
2018-01-13T22:22:02.332Z,10.20
2018-01-13T22:24:34.172Z,9.90
2018-01-13T22:27:02.577Z,8.63
2018-01-13T22:29:30.983Z,8.30
2018-01-13T22:32:00.158Z,6.93
2018-01-13T22:34:28.556Z,12.00
2018-01-13T22:36:57.692Z,11.60
2018-01-13T22:39:26.059Z,9.53
2018-01-13T22:41:54.752Z,9.10
2018-01-13T22:44:23.131Z,7.80
2018-01-13T22:46:51.498Z,12.73
2018-01-13T22:49:20.675Z,12.30
2018-01-13T22:51:49.843Z,12.27
2018-01-13T22:54:18.215Z,8.80
2018-01-13T22:56:46.604Z,11.27
2018-01-13T22:59:14.968Z,10.80
2018-01-13T23:01:43.147Z,8.47
2018-01-13T23:04:11.553Z,11.10
2018-01-13T23:06:40.691Z,11.73
2018-01-13T23:09:09.086Z,9.57
2018-01-13T23:11:37.489Z,10.40
2018-01-13T23:14:05.878Z,10.77
2018-01-13T23:16:35.027Z,14.10
2018-01-13T23:19:03.438Z,12.97
2018-01-13T23:21:31.807Z,10.80
2018-01-13T23:24:00.191Z,7.17
2018-01-13T23:26:28.591Z,12.07
2018-01-13T23:28:57.739Z,12.23
2018-01-13T23:31:26.112Z,11.83
2018-01-13T23:33:54.498Z,10.00
2018-01-13T23:36:22.863Z,9.30
2018-01-13T23:38:51.222Z,11.80
2018-01-13T23:41:19.664Z,10.87
2018-01-13T23:43:48.240Z,11.43
2018-01-13T23:46:16.599Z,11.77
2018-01-13T23:48:44.979Z,11.67
2018-01-13T23:51:13.359Z,5.30
2018-01-13T23:53:41.726Z,11.07
2018-01-13T23:56:09.943Z,12.07
2018-01-13T23:58:38.319Z,7.90
